• Join FlightAware (Why Join?)
  • Login
  • US Flag 
03:21PM EDT


 

Airport Tracker/Info


-or-


 

Live Flight TrackerFlight Track Log ✈ SWA1969 ✈ 08-May-2013 ✈ KMDW - KPHX

Flight Track Log - Related Links

Times and Time Zones

All times are in EDT time to prevent confusion due to time zone crossing. See the SWA1969 flight status page for this flight to view local times or setup timezone preferences in your user account.

Time Position Orientation Groundspeed Altitude Reporting Facility
EDT Latitude Longitude Course Direction KTS MPH feet Rate Location/Type
01:25PM 41.8333 -87.7667 283° West 223 257 3,000  Level Chicago TRACON
01:26PM 41.8167 -87.8500 255° West 237 273 3,000 480 Level Chicago TRACON
01:27PM 41.7833 -87.9333 242° Southwest 233 268 4,000 1,980 Climbing Chicago TRACON
01:28PM 41.7553 -88.0331 249° West 256 295 7,400 2,940 Climbing Chicago Center
01:29PM 41.7472 -88.1353 264° West 283 326 10,500 2,220 Climbing Chicago Center
01:30PM 41.9254 -88.6184 283° West  Level FlightAware Approximate
01:30PM 41.7619 -88.2372 281° West 288 331 12,000  Level Chicago Center
01:31PM 41.7575 -88.3519 267° West 312 359 12,900 1,560 Climbing Chicago Center
01:32PM 41.7508 -88.5153 267° West 367 422 15,300 2,280 Climbing Chicago Center
01:33PM 41.7453 -88.6586 267° West 387 445 17,700 2,220 Climbing Chicago Center
01:34PM 41.7233 -88.8036 259° West 407 468 19,900 2,160 Climbing Chicago Center
01:35PM 41.6919 -88.9481 254° West 410 472 22,200 2,220 Climbing Chicago Center
01:36PM 41.6553 -89.1222 254° West 410 472 24,600 1,920 Climbing Chicago Center
01:37PM 41.6244 -89.2722 255° West 419 482 26,200 1,380 Climbing Chicago Center
01:38PM 41.5917 -89.4242 254° West 424 488 27,500 1,200 Climbing Chicago Center
01:39PM 41.5581 -89.5808 254° West 436 502 28,800 1,380 Climbing Chicago Center
01:40PM 41.5225 -89.7411 254° West 448 516 30,400 1,500 Climbing Chicago Center
01:41PM 41.4889 -89.8961 254° West 443 510 31,900 1,500 Climbing Chicago Center
01:42PM 41.4478 -90.0781 253° West 434 499 33,500 1,500 Climbing Chicago Center
01:43PM 41.4150 -90.2267 254° West 424 488 35,100 1,200 Climbing Chicago Center
01:44PM 41.3828 -90.3700 253° West 410 472 36,000 420 Climbing Chicago Center
01:45PM 41.3506 -90.5156 254° West 410 472 36,000  Level Chicago Center
01:46PM 41.3139 -90.6647 252° West 427 491 36,000  Level Chicago Center
01:47PM 41.2714 -90.8072 248° West 418 481 36,000  Level Chicago Center
01:48PM 41.2208 -90.9781 249° West 416 479 36,000  Level Chicago Center
01:50PM 41.1792 -91.1211 249° West 417 480 36,000  Level Chicago Center
01:51PM 41.1364 -91.2631 248° West 416 479 36,000  Level Chicago Center
01:52PM 41.0944 -91.4006 248° West 408 470 36,000  Level Chicago Center
01:53PM 41.0519 -91.5397 248° West 408 470 36,000  Level Chicago Center
01:54PM 41.0061 -91.6942 249° West 408 470 36,000  Level Chicago Center
01:55PM 40.9636 -91.8306 248° West 405 466 36,000  Level Chicago Center
01:56PM 40.9214 -91.9683 248° West 408 470 36,000  Level Chicago Center
01:57PM 40.8711 -92.1303 248° West 403 464 36,000  Level Chicago Center
01:58PM 40.8292 -92.2644 248° West 401 461 36,000  Level Chicago Center
01:59PM 40.7881 -92.3994 248° West 402 463 36,000  Level Chicago Center
02:00PM 40.7467 -92.5328 248° West 399 459 36,000  Level Chicago Center
02:01PM 40.7044 -92.6650 247° West 398 458 36,000  Level Chicago Center
02:02PM 40.6542 -92.8222 247° West 395 455 36,000  Level Chicago Center
02:03PM 40.6203 -92.9281 247° West 396 456 36,000  Level Kansas City Center
02:04PM 40.5792 -93.0583 247° West 394 453 36,000  Level Kansas City Center
02:05PM 40.5372 -93.1922 248° West 398 458 36,000  Level Kansas City Center
02:06PM 40.4850 -93.3514 247° West 401 461 36,000  Level Kansas City Center
02:07PM 40.4411 -93.4847 247° West 402 463 36,000  Level Kansas City Center
02:08PM 40.3983 -93.6164 247° West 399 459 36,000  Level Kansas City Center
02:09PM 40.3558 -93.7500 247° West 400 460 36,000  Level Kansas City Center
02:10PM 40.3111 -93.8819 246° West 401 461 36,000  Level Kansas City Center
02:11PM 40.2583 -94.0408 247° West 400 460 36,000  Level Kansas City Center
02:12PM 40.2133 -94.1750 246° West 398 458 36,000  Level Kansas City Center
02:13PM 40.1689 -94.3022 245° Southwest 400 460 36,000  Level Kansas City Center
02:14PM 40.1203 -94.4511 247° West 400 460 36,000  Level Kansas City Center
02:15PM 40.0783 -94.5761 246° West 396 456 36,000  Level Kansas City Center
02:16PM 40.0289 -94.7222 246° West 394 453 36,000  Level Kansas City Center
02:17PM 39.9867 -94.8461 246° West 393 452 36,000  Level Kansas City Center
02:18PM 39.9353 -94.9933 246° West 395 455 36,000  Level Kansas City Center
02:19PM 39.8900 -95.1139 244° Southwest 394 453 36,000  Level Kansas City Center
02:20PM 39.8367 -95.2597 245° Southwest 400 460 36,000  Level Kansas City Center
02:21PM 39.7908 -95.3839 244° Southwest 399 459 36,000  Level Kansas City Center
02:22PM 39.7447 -95.5328 248° West 402 463 36,000  Level Kansas City Center
02:23PM 39.7103 -95.6633 251° West 401 461 36,000  Level Kansas City Center
02:24PM 39.6678 -95.8131 250° West 399 459 36,000  Level Kansas City Center
02:25PM 39.6306 -95.9439 250° West 400 460 36,000  Level Kansas City Center
02:27PM 39.5894 -96.0939 250° West 396 456 36,000  Level Kansas City Center
02:28PM 39.5531 -96.2236 250° West 401 461 36,000  Level Kansas City Center
02:29PM 39.5131 -96.3694 250° West 399 459 36,000  Level Kansas City Center
02:30PM 39.4750 -96.5050 250° West 402 463 36,000  Level Kansas City Center
02:31PM 39.4361 -96.6356 249° West 405 466 36,000  Level Kansas City Center
02:32PM 39.3928 -96.7867 250° West 403 464 36,000  Level Kansas City Center
02:33PM 39.3556 -96.9161 250° West 403 464 36,000  Level Kansas City Center
02:34PM 39.3131 -97.0678 250° West 403 464 36,000  Level Kansas City Center
02:35PM 39.2747 -97.1994 249° West 407 468 36,000  Level Kansas City Center
02:36PM 39.2297 -97.3511 249° West 406 467 36,000  Level Kansas City Center
02:37PM 39.1925 -97.4814 250° West 406 467 36,000  Level Kansas City Center
02:38PM 39.1481 -97.6319 249° West 404 465 36,000  Level Kansas City Center
02:39PM 39.1089 -97.7606 249° West 402 463 36,000  Level Kansas City Center
02:40PM 39.0719 -97.8864 249° West 403 464 36,000  Level Kansas City Center
02:41PM 39.0242 -98.0469 249° West 402 463 36,000  Level Kansas City Center
02:42PM 38.9842 -98.1814 249° West 403 464 36,000  Level Kansas City Center
02:43PM 38.9442 -98.3142 249° West 404 465 36,000  Level Kansas City Center
02:44PM 38.9031 -98.4486 249° West 406 467 36,000  Level Kansas City Center
02:45PM 38.8622 -98.5836 249° West 408 470 36,000  Level Kansas City Center
02:46PM 38.8206 -98.7189 248° West 408 470 36,100  Climbing Kansas City Center
02:47PM 38.7711 -98.8794 248° West 405 466 36,000 -60 Descending Kansas City Center
02:48PM 38.7300 -99.0128 248° West 404 465 36,000  Level Kansas City Center
02:49PM 38.6892 -99.1456 249° West 402 463 36,000  Level Kansas City Center
02:50PM 38.6461 -99.2800 248° West 407 468 36,000  Level Kansas City Center
02:51PM 38.6050 -99.4131 248° West 405 466 36,000  Level Kansas City Center
02:52PM 38.5561 -99.5622 247° West 402 463 36,000  Level Kansas City Center
02:53PM 38.5175 -99.6894 249° West 402 463 36,000  Level Kansas City Center
02:54PM 38.4703 -99.8367 248° West 402 463 36,000  Level Kansas City Center
02:55PM 38.4350 -99.9419 247° West 407 468 36,000  Level Denver Center
02:56PM 38.3811 -100.1078 248° West 400 460 36,000  Level Denver Center
02:57PM 38.3397 -100.2333 247° West 401 461 36,000  Level Denver Center
02:59PM 38.2928 -100.3789 248° West 400 460 36,000  Level Denver Center
03:00PM 38.2517 -100.5047 247° West 403 464 36,000  Level Denver Center
03:01PM 38.2092 -100.6536 250° West 402 463 36,000  Level Denver Center
03:02PM 38.1728 -100.7794 250° West 400 460 36,000  Level Denver Center
03:03PM 38.1303 -100.9278 250° West 403 464 36,000  Level Denver Center
03:04PM 38.0931 -101.0531 249° West 399 459 36,000  Level Denver Center
03:05PM 38.0508 -101.2008 250° West 402 463 36,000  Level Denver Center
03:06PM 38.0133 -101.3253 249° West 399 459 36,000  Level Denver Center
03:07PM 37.9706 -101.4719 250° West 400 460 36,000  Level Denver Center
03:08PM 37.9336 -101.5972 250° West 398 458 36,000  Level Denver Center
03:09PM 37.8956 -101.7228 249° West 400 460 36,000  Level Denver Center
03:10PM 37.8525 -101.8692 250° West 401 461 36,000  Level Denver Center
03:11PM 37.8092 -102.0381 252° West 398 458 36,000  Level Denver Center
03:12PM 37.7811 -102.1681 255° West 400 460 36,000  Level Denver Center
03:13PM 37.7492 -102.3172 255° West 397 457 36,000  Level Denver Center
03:15PM 37.6953 -102.5739 255° West 396 456 36,000  Level Kansas City Center
03:15PM 37.6869 -102.6125 255° West 398 458 36,000  Level Denver Center
03:17PM 37.6511 -102.7350 250° West 390 449 36,000  Level Denver Center
03:18PM 37.5975 -102.9017 248° West 399 459 36,000  Level Denver Center
03:19PM 37.5539 -103.0475 249° West 399 459 36,000  Level Denver Center
03:20PM 37.5158 -103.1744 249° West 403 464 36,000  Level Denver Center
03:21PM 37.4767 -103.3008 249° West 404 465 36,000  Level Denver Center
03:22PM 37.4311 -103.4494 249° West 407 468 36,000  Level Denver Center
03:23PM 37.3906 -103.5769 248° West 408 470 36,000  Level Denver Center
03:24PM 37.3383 -103.7286 247° West 417 480 36,000  Level Denver Center
03:25PM 37.2906 -103.8572 245° Southwest 419 482 36,000  Level Denver Center
03:26PM 37.2292 -104.0294 246° West 420 483 36,000  Level Denver Center
03:27PM 37.1831 -104.1564 246° West 416 479 36,000  Level Denver Center
03:28PM 37.1350 -104.2825 244° Southwest 415 478 36,000  Level Denver Center
03:29PM 37.1039 -104.3664 245° Southwest 416 479 36,000  Level Albuquerque Center
03:29PM 37.0797 -104.4317 245° Southwest 420 483 36,000  Level Denver Center
03:30PM 37.0308 -104.5586 244° Southwest 421 484 36,000  Level Denver Center
03:31PM 36.9781 -104.7075 246° West 419 482 36,000  Level Denver Center
03:32PM 36.9364 -104.8369 248° West 419 482 36,000  Level Denver Center
03:33PM 36.8922 -104.9581 246° West 421 484 36,000  Level Denver Center
03:34PM 36.8642 -105.0469 248° West 416 479 36,000  Level Albuquerque Center
03:35PM 36.8150 -105.1919 247° West 408 470 36,000  Level Albuquerque Center
03:36PM 36.7725 -105.3150 247° West 405 466 36,000  Level Albuquerque Center
03:36PM 36.7500 -105.3778 246° West 403 464 36,000  Level Denver Center
03:37PM 36.7153 -105.4797 247° West 402 463 36,000  Level Denver Center
03:38PM 36.6581 -105.6461 247° West 408 470 36,000  Level Denver Center
03:39PM 36.6122 -105.7725 246° West 415 478 36,000  Level Denver Center
03:40PM 36.5839 -105.8578 248° West 419 482 36,000  Level Albuquerque Center
03:41PM 36.5406 -105.9856 247° West 420 483 36,000  Level Albuquerque Center
03:42PM 36.4892 -106.1300 246° West 412 474 36,000  Level Albuquerque Center
03:43PM 36.4447 -106.2539 246° West 411 473 36,000  Level Albuquerque Center
03:44PM 36.3947 -106.3983 247° West 408 470 36,000  Level Albuquerque Center
03:45PM 36.3500 -106.5214 246° West 409 471 36,000  Level Albuquerque Center
03:46PM 36.2989 -106.6639 246° West 407 468 36,000  Level Albuquerque Center
03:47PM 36.2550 -106.7853 246° West 405 466 36,000  Level Albuquerque Center
03:48PM 36.2039 -106.9269 246° West 403 464 36,000  Level Albuquerque Center
03:49PM 36.1594 -107.0489 246° West 405 466 36,000  Level Albuquerque Center
03:50PM 36.1089 -107.1897 246° West 403 464 36,000  Level Albuquerque Center
03:51PM 36.0633 -107.3103 245° Southwest 402 463 36,000  Level Albuquerque Center
03:52PM 36.0133 -107.4508 246° West 400 460 36,000  Level Albuquerque Center
03:53PM 35.9697 -107.5697 246° West 399 459 36,000  Level Albuquerque Center
03:55PM 35.9250 -107.6883 245° Southwest 398 458 36,000  Level Albuquerque Center
03:56PM 35.8733 -107.8256 245° Southwest 396 456 36,000  Level Albuquerque Center
03:57PM 35.8297 -107.9439 246° West 395 455 36,000  Level Albuquerque Center
03:58PM 35.7786 -108.0814 245° Southwest 394 453 36,000  Level Albuquerque Center
03:59PM 35.7347 -108.1997 245° Southwest 395 455 36,000  Level Albuquerque Center
04:00PM 35.6822 -108.3381 245° Southwest 397 457 36,000  Level Albuquerque Center
04:01PM 35.6369 -108.4544 244° Southwest 395 455 36,000  Level Albuquerque Center
04:02PM 35.5850 -108.5922 245° Southwest 396 456 36,000  Level Albuquerque Center
04:03PM 35.5403 -108.7103 245° Southwest 395 455 36,000  Level Albuquerque Center
04:04PM 35.4872 -108.8467 244° Southwest 395 455 36,000  Level Albuquerque Center
04:05PM 35.4189 -108.9458 230° Southwest 398 458 36,000  Level Albuquerque Center
04:06PM 35.3319 -109.0614 227° Southwest 407 468 36,000  Level Albuquerque Center
04:07PM 35.2572 -109.1586 227° Southwest 409 471 36,000  Level Albuquerque Center
04:08PM 35.1817 -109.2542 226° Southwest 408 470 36,000  Level Albuquerque Center
04:09PM 35.0961 -109.3661 227° Southwest 404 465 36,000  Level Albuquerque Center
04:10PM 35.0208 -109.4597 226° Southwest 402 463 36,000  Level Albuquerque Center
04:11PM 34.9336 -109.5672 224° Southwest 399 459 36,000  Level Albuquerque Center
04:12PM 34.9085 -109.5938 224° Southwest  Level FlightAware Approximate
04:12PM 34.8603 -109.6600 226° Southwest 398 458 36,000  Level Albuquerque Center
04:13PM 34.7742 -109.7703 226° Southwest 400 460 36,000  Level Albuquerque Center
04:14PM 34.7031 -109.8631 227° Southwest 394 453 36,000  Level Albuquerque Center
04:15PM 34.6547 -109.9983 247° West 387 445 36,000 -240 Level Albuquerque Center
04:17PM 34.5930 -110.1495 244° Southwest  Level FlightAware Approximate
04:17PM 34.5678 -110.2511 244° Southwest 390 449 35,400  Level Albuquerque Center
04:18PM 34.5203 -110.3544 241° Southwest 374 430 33,100 -2,100 Descending Albuquerque Center
04:19PM 34.4814 -110.4714 248° West 377 434 31,100 -1,980 Descending Albuquerque Center
04:20PM 34.4414 -110.5806 246° West 363 418 29,100 -1,920 Descending Albuquerque Center
04:21PM 34.4017 -110.6842 245° Southwest 344 396 27,200 -2,040 Descending Albuquerque Center
04:22PM 34.3486 -110.8036 242° Southwest 339 390 25,000 -2,040 Descending Albuquerque Center
04:24PM 34.2817 -110.8906 227° Southwest 351 404 23,100 -1,860 Descending Albuquerque Center
04:25PM 34.2150 -110.9761 227° Southwest 352 405 21,200 -1,860 Descending Albuquerque Center
04:26PM 34.1506 -111.0606 227° Southwest 348 400 19,300 -1,740 Descending Albuquerque Center
04:27PM 34.0875 -111.1397 226° Southwest 334 384 17,600 -1,680 Descending Albuquerque Center
04:28PM 34.0272 -111.2178 227° Southwest 323 372 15,800 -1,860 Descending Albuquerque Center
04:29PM 33.9556 -111.3114 227° Southwest 317 365 13,800 -1,680 Descending Albuquerque Center
04:30PM 33.8964 -111.3861 226° Southwest 310 357 12,400 -1,320 Descending Albuquerque Center
04:31PM 33.8344 -111.4456 219° Southwest 289 333 11,100 -900 Descending Albuquerque Center
04:32PM 33.7703 -111.5008 216° Southwest 283 326 10,600 -840 Descending Albuquerque Center
04:33PM 33.7075 -111.5561 216° Southwest 280 322 9,400 -840 Descending Albuquerque Center
04:34PM 33.6478 -111.6069 215° Southwest 267 307 8,900 -840 Descending Albuquerque Center
04:35PM 33.5906 -111.6531 214° Southwest 252 290 7,700 -1,260 Descending Albuquerque Center
04:36PM 33.5344 -111.7006 215° Southwest 247 284 6,400 -1,320 Descending Albuquerque Center
04:37PM 33.4675 -111.7586 216° Southwest 246 283 5,000 -960 Descending Albuquerque Center
04:38PM 33.4408 -111.8167 241° Southwest 213 245 4,500 -840 Descending Albuquerque Center
04:39PM 33.4425 -111.8753 272° West 189 217 3,300 -1,140 Descending Albuquerque Center
04:40PM 33.4422 -111.9328 270° West 180 207 2,200 -900 Descending Albuquerque Center
04:41PM 33.4411 -111.9894 269° West 170 196 1,500 -720 Descending Albuquerque Center
04:43PM 33.4343 -112.0116 270° West  Level Estimated
04:50PM 33.4343 -112.0116 90° East  Level Estimated